createdAt,value
2019-02-09T00:01:15.797Z,7.10
2019-02-09T00:03:45.476Z,7.10
2019-02-09T00:06:14.780Z,7.10
2019-02-09T00:08:44.246Z,7.00
2019-02-09T00:11:13.544Z,7.00
2019-02-09T00:13:42.817Z,7.00
2019-02-09T00:16:12.330Z,7.00
2019-02-09T00:18:41.655Z,7.00
2019-02-09T00:23:39.564Z,7.00
2019-02-09T00:26:08.837Z,7.00
2019-02-09T00:28:38.080Z,6.90
2019-02-09T00:31:07.507Z,6.90
2019-02-09T00:33:36.876Z,6.90
2019-02-09T00:36:06.441Z,6.90
2019-02-09T00:38:35.642Z,6.90
2019-02-09T00:41:05.009Z,7.00
2019-02-09T00:43:34.191Z,7.00
2019-02-09T00:46:03.502Z,7.10
2019-02-09T00:48:32.806Z,7.10
2019-02-09T00:51:02.602Z,7.20
2019-02-09T00:53:31.918Z,7.20
2019-02-09T00:56:01.156Z,7.30
2019-02-09T00:58:30.702Z,7.30
2019-02-09T01:00:59.905Z,7.30
2019-02-09T01:03:29.269Z,7.30
2019-02-09T01:05:58.653Z,7.40
2019-02-09T01:08:28.189Z,7.40
2019-02-09T01:10:57.463Z,7.40
2019-02-09T01:13:26.916Z,7.40
2019-02-09T01:15:56.432Z,7.40
2019-02-09T01:18:25.722Z,7.40
2019-02-09T01:20:54.913Z,7.30
2019-02-09T01:23:24.246Z,7.20
2019-02-09T01:25:54.097Z,7.20
2019-02-09T01:28:23.435Z,7.20
2019-02-09T01:30:52.701Z,7.20
2019-02-09T01:48:16.328Z,6.90
2019-02-09T02:10:49.339Z,7.00
2019-02-09T02:13:18.864Z,7.10
2019-02-09T02:15:48.176Z,7.10
2019-02-09T02:18:17.441Z,7.00
2019-02-09T02:20:46.971Z,7.00
2019-02-09T02:23:16.205Z,7.00
2019-02-09T02:25:45.743Z,6.90
2019-02-09T02:28:14.992Z,6.80
2019-02-09T02:30:44.479Z,6.80
2019-02-09T02:33:14.217Z,6.70
2019-02-09T02:35:43.821Z,6.60
2019-02-09T02:38:13.006Z,6.60
2019-02-09T02:40:54.105Z,6.50
2019-02-09T02:43:23.385Z,6.60
2019-02-09T02:45:52.648Z,6.60
2019-02-09T02:48:21.830Z,6.60
2019-02-09T02:50:51.112Z,6.60
2019-02-09T02:53:20.578Z,6.60
2019-02-09T02:55:49.772Z,6.60
2019-02-09T02:58:18.948Z,6.60
2019-02-09T03:00:50.595Z,6.60
2019-02-09T03:03:20.142Z,6.60
2019-02-09T03:05:49.794Z,6.60
2019-02-09T03:08:19.064Z,6.60
2019-02-09T03:10:48.284Z,6.60
2019-02-09T03:13:17.630Z,6.70
2019-02-09T03:15:46.819Z,6.70
2019-02-09T03:18:16.282Z,6.70
2019-02-09T03:20:45.549Z,6.60
2019-02-09T03:23:14.735Z,6.60
2019-02-09T03:25:44.289Z,6.60
2019-02-09T03:28:13.602Z,6.70
2019-02-09T03:30:48.019Z,6.70
2019-02-09T03:33:13.805Z,6.80
2019-02-09T03:35:43.034Z,6.80
2019-02-09T03:38:12.659Z,6.90
2019-02-09T03:40:41.955Z,6.80
2019-02-09T03:43:11.239Z,6.80
2019-02-09T03:45:40.540Z,6.90
2019-02-09T03:48:09.992Z,6.90
2019-02-09T03:50:39.570Z,6.90
2019-02-09T03:55:37.740Z,6.80
2019-02-09T03:58:06.940Z,6.80
2019-02-09T04:00:36.501Z,6.80
2019-02-09T04:05:34.702Z,6.70
2019-02-09T04:08:04.098Z,6.70
2019-02-09T04:10:33.988Z,6.60
2019-02-09T04:13:03.166Z,6.60
2019-02-09T04:15:32.424Z,6.60
2019-02-09T04:18:03.655Z,6.60
2019-02-09T04:20:32.940Z,6.60
2019-02-09T04:23:02.208Z,6.70
2019-02-09T04:25:31.383Z,6.60
2019-02-09T04:28:00.550Z,6.60
2019-02-09T04:30:31.430Z,6.60
2019-02-09T04:33:00.734Z,6.50
2019-02-09T04:35:29.992Z,6.50
2019-02-09T04:37:59.287Z,6.60
2019-02-09T04:40:30.425Z,6.60
2019-02-09T04:42:59.621Z,6.60
2019-02-09T04:45:29.271Z,6.50
2019-02-09T04:47:58.557Z,6.50
2019-02-09T04:50:27.831Z,6.50
2019-02-09T04:52:57.363Z,6.50
2019-02-09T04:55:26.733Z,6.50
2019-02-09T04:57:56.385Z,6.50
2019-02-09T05:00:27.695Z,6.50
2019-02-09T05:02:56.965Z,6.50
2019-02-09T05:05:26.693Z,6.50
2019-02-09T05:07:55.895Z,6.60
2019-02-09T05:10:25.153Z,6.60
2019-02-09T05:12:54.462Z,6.60
2019-02-09T05:15:24.117Z,6.60
2019-02-09T05:17:53.374Z,6.60
2019-02-09T05:20:24.840Z,6.60
2019-02-09T05:22:54.616Z,6.60
2019-02-09T05:25:24.247Z,6.60
2019-02-09T05:27:53.441Z,6.60
2019-02-09T05:30:29.317Z,6.70
2019-02-09T05:33:00.466Z,6.60
2019-02-09T05:35:29.633Z,6.60
2019-02-09T05:37:58.886Z,6.70
2019-02-09T05:40:28.372Z,6.70
2019-02-09T05:42:57.570Z,6.60
2019-02-09T05:45:27.894Z,6.70
2019-02-09T05:47:57.346Z,6.70
2019-02-09T05:50:27.002Z,6.70
2019-02-09T05:52:56.828Z,6.80
2019-02-09T05:55:26.009Z,6.70
2019-02-09T05:57:55.335Z,6.80
2019-02-09T06:00:39.477Z,6.80
2019-02-09T06:03:09.087Z,6.80
2019-02-09T06:05:38.437Z,6.80
2019-02-09T06:08:07.766Z,6.80
2019-02-09T06:10:37.640Z,6.80
2019-02-09T06:13:08.832Z,6.80
2019-02-09T06:15:38.396Z,6.80
2019-02-09T06:18:09.865Z,6.80
2019-02-09T06:20:40.684Z,6.80
2019-02-09T06:23:12.936Z,6.80
2019-02-09T06:25:42.205Z,6.70
2019-02-09T06:28:13.153Z,6.70
2019-02-09T06:30:42.566Z,6.80
2019-02-09T06:33:12.066Z,6.80
2019-02-09T06:35:41.449Z,6.90
2019-02-09T06:38:11.749Z,6.80
2019-02-09T06:40:40.945Z,6.80
2019-02-09T06:43:10.114Z,6.80
2019-02-09T06:45:39.889Z,6.80
2019-02-09T06:48:40.469Z,6.80
2019-02-09T06:51:10.821Z,6.80
2019-02-09T06:53:40.140Z,6.70
2019-02-09T06:56:09.359Z,6.70
2019-02-09T06:58:38.617Z,6.70
2019-02-09T07:01:08.197Z,6.70
2019-02-09T07:03:39.654Z,6.80
2019-02-09T07:06:08.829Z,6.80
2019-02-09T07:08:38.084Z,6.80
2019-02-09T07:11:07.853Z,6.90
2019-02-09T07:13:37.408Z,6.90
2019-02-09T07:16:06.925Z,6.90
2019-02-09T07:18:36.193Z,6.90
2019-02-09T07:21:05.709Z,7.00
2019-02-09T07:23:37.913Z,7.00
2019-02-09T07:26:07.172Z,7.00
2019-02-09T07:28:36.632Z,7.00
2019-02-09T07:31:06.268Z,7.00
2019-02-09T07:33:35.511Z,7.00
2019-02-09T07:36:05.126Z,7.00
2019-02-09T07:38:40.804Z,7.10
2019-02-09T07:41:28.819Z,7.10
2019-02-09T07:43:58.009Z,7.10
2019-02-09T07:46:27.247Z,7.10
2019-02-09T07:48:56.674Z,7.10
2019-02-09T07:51:25.936Z,7.10
2019-02-09T07:53:55.589Z,7.10
2019-02-09T07:56:24.794Z,7.10
2019-02-09T07:58:54.391Z,7.10
2019-02-09T08:01:23.638Z,7.10
2019-02-09T08:03:53.048Z,7.10
2019-02-09T08:06:22.333Z,7.10
2019-02-09T08:08:52.058Z,7.10
2019-02-09T08:11:28.637Z,7.10
2019-02-09T08:16:58.940Z,7.00
2019-02-09T08:19:28.587Z,7.10
2019-02-09T08:21:58.327Z,7.10
2019-02-09T08:24:31.450Z,7.10
2019-02-09T08:27:00.857Z,7.10
2019-02-09T08:29:30.090Z,7.10
2019-02-09T08:31:59.462Z,7.10
2019-02-09T08:34:28.898Z,7.10
2019-02-09T08:36:58.424Z,7.10
2019-02-09T08:39:27.628Z,7.10
2019-02-09T08:41:56.892Z,7.20
2019-02-09T08:44:26.498Z,7.20
2019-02-09T08:46:56.024Z,7.20
2019-02-09T08:49:25.456Z,7.30
2019-02-09T08:51:55.175Z,7.30
2019-02-09T08:54:24.753Z,7.30
2019-02-09T08:56:54.221Z,7.30
2019-02-09T08:59:23.445Z,7.40
2019-02-09T09:01:52.989Z,7.40
2019-02-09T09:04:22.348Z,7.40
2019-02-09T09:06:51.878Z,7.40
2019-02-09T09:09:21.609Z,7.30
2019-02-09T09:11:50.913Z,7.40
2019-02-09T09:14:20.292Z,7.30
2019-02-09T09:16:49.717Z,7.30
2019-02-09T09:19:18.906Z,7.40
2019-02-09T09:21:48.147Z,7.40
2019-02-09T09:24:18.012Z,7.40
2019-02-09T09:26:47.192Z,7.50
2019-02-09T09:29:16.462Z,7.50
2019-02-09T09:31:45.730Z,7.60
2019-02-09T09:34:15.250Z,7.60
2019-02-09T09:36:44.479Z,7.60
2019-02-09T09:39:13.777Z,7.60
2019-02-09T09:41:42.983Z,7.60
2019-02-09T09:44:12.283Z,7.70
2019-02-09T09:46:41.549Z,7.70
2019-02-09T09:49:10.722Z,7.70
2019-02-09T09:51:40.112Z,7.70
2019-02-09T09:54:09.341Z,7.60
2019-02-09T09:56:38.608Z,7.60
2019-02-09T09:59:07.873Z,7.60
2019-02-09T10:01:37.310Z,7.60
2019-02-09T10:04:07.105Z,7.60
2019-02-09T10:06:36.384Z,7.60
2019-02-09T10:09:08.397Z,7.70
2019-02-09T10:11:38.200Z,7.70
2019-02-09T10:14:08.964Z,7.70
2019-02-09T10:16:38.480Z,7.80
2019-02-09T10:19:07.644Z,7.80
2019-02-09T10:21:37.104Z,7.80
2019-02-09T10:24:06.542Z,7.90
2019-02-09T10:26:36.209Z,7.90
2019-02-09T10:29:05.448Z,7.80
2019-02-09T10:31:34.725Z,7.90
2019-02-09T10:34:04.423Z,7.80
2019-02-09T10:36:33.705Z,8.00
2019-02-09T10:39:03.378Z,8.00
2019-02-09T10:41:47.225Z,8.10
2019-02-09T10:44:16.803Z,8.10
2019-02-09T10:46:46.662Z,8.10
2019-02-09T10:49:15.982Z,8.20
2019-02-09T10:51:45.262Z,8.30
2019-02-09T10:54:14.708Z,8.40
2019-02-09T10:56:44.279Z,8.50
2019-02-09T10:59:13.865Z,8.40
2019-02-09T11:01:43.539Z,8.30
2019-02-09T11:04:13.121Z,8.30
2019-02-09T11:06:42.384Z,8.40
2019-02-09T11:09:21.615Z,8.40
2019-02-09T11:11:50.935Z,8.40
2019-02-09T11:14:20.336Z,8.40
2019-02-09T11:16:50.093Z,8.40
2019-02-09T11:19:19.269Z,8.40
2019-02-09T11:21:49.862Z,8.40
2019-02-09T11:24:19.242Z,8.40
2019-02-09T11:26:48.605Z,8.50
2019-02-09T11:29:17.927Z,8.40
2019-02-09T11:31:47.441Z,8.40
2019-02-09T11:34:16.709Z,8.60
2019-02-09T11:36:54.952Z,8.60
2019-02-09T11:39:30.693Z,8.70
2019-02-09T11:42:00.514Z,8.80
2019-02-09T11:44:40.998Z,9.00
2019-02-09T11:47:04.564Z,9.10
2019-02-09T11:49:33.840Z,9.30
2019-02-09T11:52:03.167Z,9.40
2019-02-09T11:54:32.851Z,9.40
2019-02-09T11:57:02.097Z,9.30
2019-02-09T11:59:31.318Z,9.00
2019-02-09T12:02:01.006Z,9.00
2019-02-09T12:04:30.372Z,9.00
2019-02-09T12:06:59.966Z,8.90
2019-02-09T12:09:29.283Z,8.90
2019-02-09T12:11:58.561Z,8.90
2019-02-09T12:14:27.845Z,8.90
2019-02-09T12:16:57.057Z,8.80
2019-02-09T12:19:26.280Z,8.80
2019-02-09T12:21:55.646Z,8.90
2019-02-09T12:24:25.021Z,8.90
2019-02-09T12:26:54.601Z,9.00
2019-02-09T12:29:24.010Z,9.00
2019-02-09T12:31:53.598Z,9.10
2019-02-09T12:34:23.196Z,9.20
2019-02-09T12:36:54.077Z,9.20
2019-02-09T12:39:23.552Z,9.10
2019-02-09T12:41:52.837Z,9.20
2019-02-09T12:44:22.143Z,9.40
2019-02-09T12:46:51.480Z,9.60
2019-02-09T12:49:21.120Z,9.80
2019-02-09T12:51:50.494Z,9.90
2019-02-09T12:54:20.415Z,9.90
2019-02-09T12:56:49.837Z,9.60
2019-02-09T12:59:21.643Z,9.30
2019-02-09T13:01:52.069Z,9.20
2019-02-09T13:04:21.549Z,9.20
2019-02-09T13:06:50.902Z,9.30
2019-02-09T13:09:20.220Z,9.30
2019-02-09T13:11:49.794Z,9.40
2019-02-09T13:14:19.052Z,9.60
2019-02-09T13:16:48.364Z,9.60
2019-02-09T13:19:17.697Z,9.40
2019-02-09T13:21:47.109Z,9.40
2019-02-09T13:24:16.323Z,9.40
2019-02-09T13:27:08.057Z,9.40
2019-02-09T13:29:39.990Z,9.40
2019-02-09T13:32:13.460Z,9.50
2019-02-09T13:34:45.812Z,9.30
2019-02-09T13:37:16.627Z,9.20
2019-02-09T13:39:50.943Z,9.20
2019-02-09T13:42:21.947Z,9.20
2019-02-09T13:44:51.373Z,9.20
2019-02-09T13:47:20.629Z,9.20
2019-02-09T13:49:49.966Z,9.30
2019-02-09T13:52:19.381Z,9.40
2019-02-09T13:54:48.640Z,9.50
2019-02-09T13:57:17.896Z,9.80
2019-02-09T13:59:47.107Z,9.90
2019-02-09T14:02:16.254Z,10.10
2019-02-09T14:04:45.541Z,9.90
2019-02-09T14:07:14.806Z,9.50
2019-02-09T14:09:44.012Z,9.50
2019-02-09T14:12:13.264Z,9.30
2019-02-09T14:14:42.585Z,9.20
2019-02-09T14:17:12.212Z,9.10
2019-02-09T14:19:41.744Z,9.00
2019-02-09T14:22:11.118Z,9.00
2019-02-09T14:24:40.566Z,9.00
2019-02-09T14:27:10.008Z,9.00
2019-02-09T14:29:39.446Z,8.90
2019-02-09T14:32:08.977Z,8.90
2019-02-09T14:34:38.283Z,8.90
2019-02-09T14:37:07.689Z,8.80
2019-02-09T14:39:36.886Z,8.90
2019-02-09T14:42:06.388Z,8.90
2019-02-09T14:44:35.741Z,8.90
2019-02-09T14:47:05.089Z,8.80
2019-02-09T14:49:34.378Z,8.90
2019-02-09T14:52:03.738Z,8.80
2019-02-09T14:54:33.254Z,8.80
2019-02-09T14:57:02.617Z,8.90
2019-02-09T14:59:31.944Z,8.90
2019-02-09T15:02:03.803Z,8.90
2019-02-09T15:04:33.152Z,9.00
2019-02-09T15:07:02.852Z,8.90
2019-02-09T15:09:32.320Z,8.90
2019-02-09T15:12:01.857Z,8.90
2019-02-09T15:14:31.713Z,9.00
2019-02-09T15:17:05.585Z,9.00
2019-02-09T15:19:37.911Z,9.00
2019-02-09T15:22:08.278Z,8.90
2019-02-09T15:24:37.639Z,8.90
2019-02-09T15:27:06.896Z,8.90
2019-02-09T15:29:36.894Z,8.90
2019-02-09T15:32:06.662Z,8.90
2019-02-09T15:34:35.918Z,8.90
2019-02-09T15:37:05.392Z,8.90
2019-02-09T15:39:34.802Z,8.90
2019-02-09T15:42:04.201Z,8.90
2019-02-09T15:44:33.477Z,8.80
2019-02-09T15:47:03.082Z,8.70
2019-02-09T15:49:32.352Z,8.60
2019-02-09T15:52:01.865Z,8.60
2019-02-09T15:54:31.775Z,8.50
2019-02-09T15:57:01.070Z,8.50
2019-02-09T15:59:30.490Z,8.50
2019-02-09T16:01:59.689Z,8.50
2019-02-09T16:04:29.205Z,8.50
2019-02-09T16:06:58.552Z,8.60
2019-02-09T16:09:28.162Z,8.50
2019-02-09T16:11:57.711Z,8.50
2019-02-09T16:14:26.985Z,8.50
2019-02-09T16:16:56.589Z,8.50
2019-02-09T16:19:25.900Z,8.60
2019-02-09T16:21:55.246Z,8.60
2019-02-09T16:24:24.835Z,8.60
2019-02-09T16:26:54.091Z,8.60
2019-02-09T16:29:23.434Z,8.50
2019-02-09T16:31:52.862Z,8.50
2019-02-09T16:34:25.486Z,8.50
2019-02-09T16:36:53.739Z,8.50
2019-02-09T16:39:23.416Z,8.40
2019-02-09T16:41:52.949Z,8.40
2019-02-09T16:44:22.676Z,8.30
2019-02-09T16:46:52.328Z,8.40
2019-02-09T16:49:21.620Z,8.30
2019-02-09T16:51:51.010Z,8.20
2019-02-09T16:54:20.476Z,8.20
2019-02-09T16:56:49.744Z,8.10
2019-02-09T16:59:19.341Z,8.00
2019-02-09T17:01:48.775Z,8.00
2019-02-09T17:04:18.358Z,8.00
2019-02-09T17:06:58.899Z,8.00
2019-02-09T17:11:25.618Z,8.00
2019-02-09T17:12:22.451Z,8.00
2019-02-09T17:15:02.200Z,8.00
2019-02-09T17:17:32.512Z,8.00
2019-02-09T17:20:04.184Z,8.00
2019-02-09T17:22:33.483Z,8.00
2019-02-09T17:25:02.957Z,7.90
2019-02-09T17:27:32.208Z,7.90
2019-02-09T17:30:02.172Z,7.90
2019-02-09T17:32:31.393Z,7.80
2019-02-09T17:35:00.623Z,7.70
2019-02-09T17:37:30.194Z,7.60
2019-02-09T17:39:59.476Z,7.50
2019-02-09T17:42:28.773Z,7.50
2019-02-09T17:44:58.088Z,7.50
2019-02-09T17:47:27.567Z,7.40
2019-02-09T17:49:56.893Z,7.40
2019-02-09T17:52:26.194Z,7.40
2019-02-09T17:54:55.545Z,7.40
2019-02-09T17:57:24.825Z,7.40
2019-02-09T17:59:54.060Z,7.30
2019-02-09T18:02:23.360Z,7.30
2019-02-09T18:04:52.731Z,7.30
2019-02-09T18:07:22.133Z,7.30
2019-02-09T18:09:51.413Z,7.30
2019-02-09T18:12:20.745Z,7.30
2019-02-09T18:14:50.100Z,7.30
2019-02-09T18:17:19.411Z,7.30
2019-02-09T18:19:48.921Z,7.40
2019-02-09T18:22:18.250Z,7.40
2019-02-09T18:24:47.622Z,7.40
2019-02-09T18:27:17.279Z,7.40
2019-02-09T18:29:46.811Z,7.40
2019-02-09T18:32:16.607Z,7.30
2019-02-09T18:34:45.923Z,7.30
2019-02-09T18:37:15.497Z,7.30
2019-02-09T18:39:45.856Z,7.20
2019-02-09T18:42:15.051Z,7.10
2019-02-09T18:44:46.048Z,6.90
2019-02-09T18:47:15.728Z,7.00
2019-02-09T18:49:45.244Z,7.10
2019-02-09T18:52:14.585Z,7.20
2019-02-09T18:54:43.949Z,7.10
2019-02-09T18:57:13.220Z,7.10
2019-02-09T18:59:42.458Z,7.20
2019-02-09T19:02:12.095Z,7.20
2019-02-09T19:04:41.451Z,7.20
2019-02-09T19:07:10.818Z,7.30
2019-02-09T19:09:40.370Z,7.40
2019-02-09T19:12:09.981Z,7.40
2019-02-09T19:14:39.329Z,7.50
2019-02-09T19:17:08.594Z,7.50
2019-02-09T19:19:38.032Z,7.50
2019-02-09T19:22:07.778Z,7.60
2019-02-09T19:24:37.112Z,7.50
2019-02-09T19:27:07.856Z,7.50
2019-02-09T19:29:37.271Z,7.50
2019-02-09T19:32:08.200Z,7.50
2019-02-09T19:34:37.536Z,7.50
2019-02-09T19:37:06.816Z,7.50
2019-02-09T19:39:36.116Z,7.50
2019-02-09T19:42:05.557Z,7.50
2019-02-09T19:44:35.267Z,7.60
2019-02-09T19:47:04.540Z,7.60
2019-02-09T19:49:39.847Z,7.50
2019-02-09T19:52:10.828Z,7.50
2019-02-09T19:54:40.465Z,7.60
2019-02-09T19:57:09.844Z,7.60
2019-02-09T19:59:40.018Z,7.60
2019-02-09T20:02:09.414Z,7.50
2019-02-09T20:04:39.017Z,7.50
2019-02-09T20:07:09.250Z,7.50
2019-02-09T20:09:38.763Z,7.50
2019-02-09T20:12:08.204Z,7.50
2019-02-09T20:14:37.740Z,7.50
2019-02-09T20:17:10.797Z,7.50
2019-02-09T20:19:41.202Z,7.50
2019-02-09T20:22:18.333Z,7.50
2019-02-09T20:24:48.007Z,7.50
2019-02-09T20:27:17.561Z,7.50
2019-02-09T20:29:47.448Z,7.50
2019-02-09T20:32:16.794Z,7.60
2019-02-09T20:34:46.061Z,7.60
2019-02-09T20:37:15.395Z,7.60
2019-02-09T20:39:44.647Z,7.60
2019-02-09T20:42:14.014Z,7.60
2019-02-09T20:44:43.288Z,7.60
2019-02-09T20:47:12.557Z,7.70
2019-02-09T20:49:42.523Z,7.70
2019-02-09T20:52:11.723Z,7.70
2019-02-09T20:54:41.717Z,7.70
2019-02-09T20:57:10.991Z,7.80
2019-02-09T20:59:40.221Z,7.70
2019-02-09T21:02:12.873Z,7.70
2019-02-09T21:04:42.130Z,7.80
2019-02-09T21:07:11.614Z,7.80
2019-02-09T21:09:41.329Z,7.80
2019-02-09T21:12:10.514Z,7.90
2019-02-09T21:14:39.700Z,7.90
2019-02-09T21:17:08.919Z,7.80
2019-02-09T21:19:38.190Z,7.80
2019-02-09T21:22:07.515Z,7.80
2019-02-09T21:24:36.937Z,7.80
2019-02-09T21:27:06.557Z,7.80
2019-02-09T21:29:36.163Z,7.80
2019-02-09T21:32:05.730Z,7.70
2019-02-09T21:34:34.967Z,7.70
2019-02-09T21:37:06.254Z,7.70
2019-02-09T21:39:35.305Z,7.70
2019-02-09T21:42:04.919Z,7.70
2019-02-09T21:44:34.267Z,7.60
2019-02-09T21:47:03.585Z,7.70
2019-02-09T21:49:33.106Z,7.70
2019-02-09T21:52:02.286Z,7.70
2019-02-09T21:54:31.566Z,7.70
2019-02-09T21:57:01.079Z,7.70
2019-02-09T21:59:30.275Z,7.70
2019-02-09T22:02:00.163Z,7.70
2019-02-09T22:04:29.404Z,7.70
2019-02-09T22:06:58.970Z,7.70
2019-02-09T22:09:28.204Z,7.70
2019-02-09T22:11:57.510Z,7.70
2019-02-09T22:14:26.807Z,7.70
2019-02-09T22:16:56.072Z,7.70
2019-02-09T22:19:25.245Z,7.80
2019-02-09T22:21:54.681Z,7.80
2019-02-09T22:24:36.570Z,7.80
2019-02-09T22:27:05.934Z,7.80
2019-02-09T22:29:35.593Z,7.80
2019-02-09T22:32:05.002Z,7.80
2019-02-09T22:34:34.320Z,7.90
2019-02-09T22:37:03.811Z,7.80
2019-02-09T22:39:33.070Z,7.80
2019-02-09T22:42:02.410Z,7.80
2019-02-09T22:44:32.294Z,7.80
2019-02-09T22:47:01.558Z,7.90
2019-02-09T22:49:30.824Z,7.80
2019-02-09T22:52:00.337Z,7.80
2019-02-09T22:54:29.644Z,7.80
2019-02-09T22:56:58.897Z,7.80
2019-02-09T22:59:28.077Z,7.80
2019-02-09T23:01:57.332Z,7.80
2019-02-09T23:04:57.625Z,7.80
2019-02-09T23:07:32.639Z,7.80
2019-02-09T23:10:02.991Z,7.80
2019-02-09T23:12:32.255Z,7.80
2019-02-09T23:15:01.808Z,7.80
2019-02-09T23:17:31.051Z,7.90
2019-02-09T23:20:00.397Z,7.90
2019-02-09T23:22:29.939Z,7.90
2019-02-09T23:24:59.182Z,7.90
2019-02-09T23:27:28.540Z,7.90
2019-02-09T23:29:57.765Z,7.90
2019-02-09T23:32:27.008Z,7.90
2019-02-09T23:34:56.262Z,7.80
2019-02-09T23:37:25.548Z,7.80
2019-02-09T23:39:54.854Z,7.80
2019-02-09T23:42:24.162Z,7.80
2019-02-09T23:44:53.381Z,7.90
2019-02-09T23:47:22.840Z,7.90
2019-02-09T23:49:52.441Z,7.90
2019-02-09T23:52:21.897Z,7.90
2019-02-09T23:54:51.415Z,7.90
2019-02-09T23:57:20.686Z,8.00
2019-02-09T23:59:50.190Z,8.00
